Young, Canada
Current Conditions -  °F | °C
As of 12:00 AM on Friday 31 Oct 2014 (Local Time) from CYXE Reporting Station
Broken Clouds Broken Clouds  
Wind Chill: 19°   Ceiling: 1200
Heat Index: 30°   Visibility: 15mi
Dew Point: 25°   Wind: 16mph
Humidity: 80%   Direction: 170°S
Pressure: 30.3"   Gusts: 22mph
Location:  51.77°N, 105.75°W
Report Text: CYXE 310600Z 17014G19KT 15SM BKN012 M01/M04 A3030 RMK SC7 SLP292
Loading
Personal Weather Stations






























Interactive Weather Map
Tropical Storm Tracking
New forecast layout! Learn more

10-Day Weather Forecast

Advertisements
Track Severe Weather on mobile